createdAt,value
2022-12-16T00:02:22.588Z,0
2022-12-16T00:05:47.785Z,0
2022-12-16T00:09:13.060Z,0
2022-12-16T00:12:38.369Z,0
2022-12-16T00:16:03.700Z,0
2022-12-16T00:19:28.876Z,0
2022-12-16T00:22:54.136Z,0
2022-12-16T00:26:19.418Z,0
2022-12-16T00:29:44.720Z,0
2022-12-16T00:33:09.980Z,0
2022-12-16T00:36:35.243Z,0
2022-12-16T00:40:00.522Z,0
2022-12-16T00:43:25.806Z,0
2022-12-16T00:46:51.076Z,0
2022-12-16T00:50:16.334Z,0
2022-12-16T00:53:41.622Z,0
2022-12-16T00:57:06.866Z,0
2022-12-16T01:00:32.128Z,0
2022-12-16T01:03:57.496Z,0
2022-12-16T01:07:22.657Z,0
2022-12-16T01:10:47.921Z,0
2022-12-16T01:14:13.179Z,0
2022-12-16T01:17:38.446Z,0
2022-12-16T01:21:03.696Z,0
2022-12-16T01:24:28.972Z,0
2022-12-16T01:27:54.262Z,0
2022-12-16T01:31:19.640Z,0
2022-12-16T01:34:47.323Z,0
2022-12-16T01:38:10.163Z,0
2022-12-16T01:41:35.390Z,0
2022-12-16T01:45:00.643Z,0
2022-12-16T01:48:25.932Z,0
2022-12-16T01:51:52.387Z,0
2022-12-16T01:55:16.485Z,0
2022-12-16T01:58:41.766Z,0
2022-12-16T02:02:07.194Z,0
2022-12-16T02:05:32.256Z,0
2022-12-16T02:08:57.530Z,0
2022-12-16T02:12:22.808Z,0
2022-12-16T02:15:48.062Z,0
2022-12-16T02:19:13.329Z,0
2022-12-16T02:22:38.614Z,0
2022-12-16T02:26:03.856Z,0
2022-12-16T02:29:29.198Z,0
2022-12-16T02:32:54.425Z,0
2022-12-16T02:36:19.692Z,0
2022-12-16T02:39:44.934Z,0
2022-12-16T02:43:10.229Z,0
2022-12-16T02:46:35.535Z,0
2022-12-16T02:50:00.767Z,0
2022-12-16T02:53:26.007Z,0
2022-12-16T02:56:51.302Z,0
2022-12-16T03:00:16.572Z,0
2022-12-16T03:03:41.960Z,0
2022-12-16T03:07:07.120Z,0
2022-12-16T03:10:32.366Z,0
2022-12-16T03:13:57.634Z,0
2022-12-16T03:17:22.879Z,0
2022-12-16T03:20:48.174Z,0
2022-12-16T03:24:13.422Z,0
2022-12-16T03:27:38.692Z,0
2022-12-16T03:31:04.033Z,0
2022-12-16T03:34:29.191Z,0
2022-12-16T03:37:54.505Z,0
2022-12-16T03:41:19.739Z,0
2022-12-16T03:44:45.022Z,0
2022-12-16T03:48:10.264Z,0
2022-12-16T03:51:35.527Z,0
2022-12-16T03:55:00.833Z,0
2022-12-16T03:58:26.043Z,0
2022-12-16T04:01:51.437Z,0
2022-12-16T04:05:16.585Z,0
2022-12-16T04:08:41.854Z,0
2022-12-16T04:12:07.120Z,0
2022-12-16T04:15:32.383Z,0
2022-12-16T04:18:57.646Z,0
2022-12-16T04:22:22.892Z,0
2022-12-16T04:25:48.165Z,0
2022-12-16T04:29:13.455Z,0
2022-12-16T04:32:38.679Z,0
2022-12-16T04:36:04.148Z,0
2022-12-16T04:39:29.389Z,0
2022-12-16T04:42:55.067Z,0
2022-12-16T04:46:20.433Z,0
2022-12-16T04:49:45.594Z,0
2022-12-16T04:53:10.867Z,0
2022-12-16T04:56:36.174Z,0
2022-12-16T05:00:01.423Z,0
2022-12-16T05:03:26.853Z,0
2022-12-16T05:06:51.960Z,0
2022-12-16T05:10:17.225Z,0
2022-12-16T05:13:42.488Z,0
2022-12-16T05:17:07.755Z,0
2022-12-16T05:20:33.172Z,0
2022-12-16T05:23:58.325Z,0
2022-12-16T05:27:23.563Z,0
2022-12-16T05:30:48.858Z,0
2022-12-16T05:34:14.095Z,3
2022-12-16T05:37:39.417Z,0
2022-12-16T05:41:04.624Z,0
2022-12-16T05:44:29.877Z,0
2022-12-16T05:47:55.113Z,0
2022-12-16T05:51:20.316Z,0
2022-12-16T05:54:45.577Z,0
2022-12-16T05:58:10.781Z,0
2022-12-16T06:01:36.097Z,0
2022-12-16T06:05:01.270Z,0
2022-12-16T06:08:26.535Z,0
2022-12-16T06:11:51.811Z,0
2022-12-16T06:15:17.135Z,0
2022-12-16T06:18:42.436Z,0
2022-12-16T06:22:07.722Z,0
2022-12-16T06:25:32.967Z,0
2022-12-16T06:28:58.265Z,0
2022-12-16T06:32:23.430Z,0
2022-12-16T06:35:48.649Z,1
2022-12-16T06:39:13.896Z,1
2022-12-16T06:42:39.185Z,2
2022-12-16T06:46:04.539Z,3
2022-12-16T06:49:29.667Z,5
2022-12-16T06:52:54.907Z,8
2022-12-16T06:56:20.136Z,12
2022-12-16T06:59:45.377Z,17
2022-12-16T07:03:10.673Z,24
2022-12-16T07:06:35.837Z,32
2022-12-16T07:10:01.099Z,44
2022-12-16T07:13:26.319Z,59
2022-12-16T07:16:51.588Z,75
2022-12-16T07:20:16.793Z,92
2022-12-16T07:23:42.032Z,108
2022-12-16T07:27:07.284Z,121
2022-12-16T07:30:32.531Z,138
2022-12-16T07:33:57.765Z,159
2022-12-16T07:37:23.024Z,184
2022-12-16T07:40:48.248Z,205
2022-12-16T07:44:13.485Z,217
2022-12-16T07:47:38.734Z,233
2022-12-16T07:51:03.947Z,260
2022-12-16T07:54:29.189Z,299
2022-12-16T07:57:54.414Z,331
2022-12-16T08:01:19.700Z,352
2022-12-16T08:04:44.871Z,388
2022-12-16T08:08:10.103Z,443
2022-12-16T08:11:35.415Z,485
2022-12-16T08:15:00.599Z,495
2022-12-16T08:18:25.835Z,488
2022-12-16T08:21:51.049Z,476
2022-12-16T08:25:16.278Z,466
2022-12-16T08:28:41.513Z,457
2022-12-16T08:32:06.698Z,457
2022-12-16T08:35:31.946Z,490
2022-12-16T08:38:57.184Z,521
2022-12-16T08:42:22.397Z,533
2022-12-16T08:45:47.768Z,505
2022-12-16T08:49:12.964Z,510
2022-12-16T08:52:38.137Z,577
2022-12-16T08:56:03.384Z,761
2022-12-16T08:59:28.598Z,939
2022-12-16T09:02:53.998Z,916
2022-12-16T09:06:19.038Z,810
2022-12-16T09:09:44.269Z,872
2022-12-16T09:13:09.492Z,710
2022-12-16T09:16:34.776Z,870
2022-12-16T09:19:59.980Z,918
2022-12-16T09:23:25.191Z,793
2022-12-16T09:26:50.451Z,1032
2022-12-16T09:30:15.653Z,1278
2022-12-16T09:33:40.881Z,1516
2022-12-16T09:37:06.124Z,1309
2022-12-16T09:40:31.368Z,1083
2022-12-16T09:43:56.616Z,1051
2022-12-16T09:47:21.839Z,1059
2022-12-16T09:50:47.074Z,1276
2022-12-16T09:54:12.362Z,1302
2022-12-16T09:57:37.569Z,1033
2022-12-16T10:01:02.806Z,1116
2022-12-16T10:04:28.060Z,1031
2022-12-16T10:07:53.292Z,1120
2022-12-16T10:11:18.611Z,1202
2022-12-16T10:14:43.794Z,1117
2022-12-16T10:18:09.078Z,1600
2022-12-16T10:21:34.283Z,1238
2022-12-16T10:24:59.537Z,1425
2022-12-16T10:28:24.830Z,1040
2022-12-16T10:31:50.116Z,1175
2022-12-16T10:35:15.274Z,1643
2022-12-16T10:38:40.497Z,1592
2022-12-16T10:42:05.734Z,1288
2022-12-16T10:45:31.035Z,1249
2022-12-16T10:48:57.139Z,1310
2022-12-16T10:52:21.447Z,1846
2022-12-16T10:55:46.658Z,2158
2022-12-16T10:59:11.901Z,2246
2022-12-16T11:02:37.326Z,1672
2022-12-16T11:06:02.435Z,2109
2022-12-16T11:09:27.701Z,2477
2022-12-16T11:12:52.919Z,1320
2022-12-16T11:16:18.168Z,2698
2022-12-16T11:19:43.427Z,1752
2022-12-16T11:23:10.150Z,1575
2022-12-16T11:26:37.265Z,3000
2022-12-16T11:30:00.740Z,1981
2022-12-16T11:33:26.006Z,2474
2022-12-16T11:36:51.315Z,2103
2022-12-16T11:40:16.544Z,2513
2022-12-16T11:43:41.798Z,2278
2022-12-16T11:47:07.053Z,3354
2022-12-16T11:50:32.306Z,2090
2022-12-16T11:53:57.601Z,3128
2022-12-16T11:57:22.830Z,3437
2022-12-16T12:00:48.096Z,2877
2022-12-16T12:04:13.486Z,1963
2022-12-16T12:07:44.431Z,3330
2022-12-16T12:11:03.991Z,2170
2022-12-16T12:14:35.721Z,1696
2022-12-16T12:18:00.966Z,1673
2022-12-16T12:21:26.237Z,1163
2022-12-16T12:24:56.229Z,1739
2022-12-16T12:28:16.809Z,1569
2022-12-16T12:31:42.128Z,1456
2022-12-16T12:35:07.326Z,878
2022-12-16T12:38:32.607Z,958
2022-12-16T12:41:57.864Z,817
2022-12-16T12:45:23.181Z,1049
2022-12-16T12:48:50.778Z,747
2022-12-16T12:52:13.675Z,751
2022-12-16T12:55:38.953Z,891
2022-12-16T12:59:04.252Z,1226
2022-12-16T13:02:29.722Z,1014
2022-12-16T13:05:54.916Z,768
2022-12-16T13:09:20.202Z,672
2022-12-16T13:12:45.487Z,741
2022-12-16T13:16:10.829Z,819
2022-12-16T13:19:36.159Z,754
2022-12-16T13:23:01.452Z,872
2022-12-16T13:26:26.764Z,770
2022-12-16T13:29:52.057Z,851
2022-12-16T13:33:17.427Z,580
2022-12-16T13:36:42.711Z,533
2022-12-16T13:40:08.046Z,497
2022-12-16T13:43:33.537Z,494
2022-12-16T13:46:58.665Z,478
2022-12-16T13:50:23.920Z,477
2022-12-16T13:53:49.327Z,512
2022-12-16T13:57:14.642Z,511
2022-12-16T14:00:40.118Z,504
2022-12-16T14:04:05.323Z,535
2022-12-16T14:07:30.674Z,502
2022-12-16T14:10:56.114Z,487
2022-12-16T14:14:21.384Z,408
2022-12-16T14:17:46.754Z,387
2022-12-16T14:21:12.073Z,353
2022-12-16T14:24:37.350Z,330
2022-12-16T14:28:02.645Z,293
2022-12-16T14:31:27.890Z,271
2022-12-16T15:04:13.356Z,76
2022-12-16T15:07:38.219Z,61
2022-12-16T15:11:03.501Z,49
2022-12-16T15:14:28.757Z,39
2022-12-16T15:17:54.023Z,26
2022-12-16T15:21:19.299Z,22
2022-12-16T15:24:44.547Z,12
2022-12-16T15:28:09.835Z,8
2022-12-16T15:31:35.151Z,6
2022-12-16T15:35:00.435Z,3
2022-12-16T15:38:25.724Z,2
2022-12-16T15:41:50.939Z,1
2022-12-16T15:45:16.232Z,1
2022-12-16T15:48:41.575Z,1
2022-12-16T15:52:07.027Z,0
2022-12-16T15:55:32.344Z,1
2022-12-16T15:58:57.673Z,1
2022-12-16T16:02:23.330Z,1
2022-12-16T16:05:48.470Z,0
2022-12-16T16:09:13.738Z,0
2022-12-16T16:12:39.047Z,0
2022-12-16T16:16:04.370Z,0
2022-12-16T16:19:29.623Z,0
2022-12-16T16:22:54.905Z,0
2022-12-16T16:26:20.299Z,0
2022-12-16T16:29:45.598Z,0
2022-12-16T16:33:10.846Z,0
2022-12-16T16:36:36.119Z,0
2022-12-16T16:40:01.438Z,0
2022-12-16T16:43:26.735Z,0
2022-12-16T16:46:52.147Z,0
2022-12-16T16:50:19.371Z,0
2022-12-16T16:53:42.632Z,0
2022-12-16T16:57:07.914Z,0
2022-12-16T17:00:33.233Z,0
2022-12-16T17:03:58.759Z,0
2022-12-16T17:07:23.838Z,0
2022-12-16T17:10:49.336Z,0
2022-12-16T17:14:14.611Z,0
2022-12-16T17:17:40.064Z,0
2022-12-16T17:21:05.355Z,0
2022-12-16T17:24:30.658Z,4
2022-12-16T17:27:55.938Z,4
2022-12-16T17:31:21.240Z,0
2022-12-16T17:34:46.464Z,0
2022-12-16T17:38:11.733Z,0
2022-12-16T17:41:37.026Z,0
2022-12-16T17:45:02.913Z,0
2022-12-16T17:48:28.170Z,0
2022-12-16T17:51:53.422Z,0
2022-12-16T17:55:18.727Z,0
2022-12-16T17:58:43.971Z,0
2022-12-16T18:02:09.396Z,0
2022-12-16T18:05:38.989Z,0
2022-12-16T18:08:59.843Z,0
2022-12-16T18:12:25.174Z,0
2022-12-16T18:15:50.483Z,0
2022-12-16T18:19:15.699Z,0
2022-12-16T18:22:40.944Z,0
2022-12-16T18:26:06.249Z,0
2022-12-16T18:29:31.529Z,0
2022-12-16T18:32:56.778Z,0
2022-12-16T18:36:22.084Z,0
2022-12-16T18:39:47.379Z,0
2022-12-16T18:43:12.654Z,0
2022-12-16T18:46:37.937Z,0
2022-12-16T18:50:03.246Z,0
2022-12-16T18:53:28.532Z,0
2022-12-16T18:56:53.767Z,0
2022-12-16T19:00:19.053Z,0
2022-12-16T19:03:44.337Z,0
2022-12-16T19:07:09.589Z,0
2022-12-16T19:10:34.907Z,0
2022-12-16T19:14:00.172Z,0
2022-12-16T19:17:25.433Z,0
2022-12-16T19:20:50.764Z,0
2022-12-16T19:24:16.082Z,0
2022-12-16T19:27:41.303Z,0
2022-12-16T19:31:06.575Z,0
2022-12-16T19:34:31.846Z,0
2022-12-16T19:37:57.176Z,0
2022-12-16T19:41:22.367Z,0
2022-12-16T19:44:47.650Z,0
2022-12-16T19:48:12.915Z,0
2022-12-16T19:51:38.178Z,0
2022-12-16T19:55:03.519Z,0
2022-12-16T19:58:28.734Z,0
2022-12-16T20:01:54.792Z,0
2022-12-16T20:05:19.255Z,0
2022-12-16T20:08:44.545Z,0
2022-12-16T20:12:09.839Z,0
2022-12-16T20:15:35.058Z,0
2022-12-16T20:19:00.324Z,0
2022-12-16T20:22:25.577Z,0
2022-12-16T20:25:50.834Z,0
2022-12-16T20:29:16.136Z,0
2022-12-16T20:32:41.434Z,0
2022-12-16T20:36:06.717Z,0
2022-12-16T20:39:31.963Z,0
2022-12-16T20:42:57.228Z,0
2022-12-16T20:46:22.641Z,0
2022-12-16T20:49:47.865Z,0
2022-12-16T20:53:13.158Z,0
2022-12-16T20:56:38.440Z,0
2022-12-16T21:00:03.853Z,0
2022-12-16T21:03:29.038Z,0
2022-12-16T21:06:54.301Z,0
2022-12-16T21:10:19.583Z,0
2022-12-16T21:13:45.211Z,0
2022-12-16T21:17:10.115Z,0
2022-12-16T21:20:35.411Z,0
2022-12-16T21:24:00.644Z,0
2022-12-16T21:27:25.916Z,0
2022-12-16T21:30:51.182Z,0
2022-12-16T21:34:16.477Z,0
2022-12-16T21:37:41.768Z,0
2022-12-16T21:41:06.988Z,0
2022-12-16T21:44:32.241Z,0
2022-12-16T21:47:57.508Z,0
2022-12-16T21:51:22.773Z,0
2022-12-16T21:54:48.868Z,0
2022-12-16T21:58:14.176Z,0
2022-12-16T22:01:39.446Z,0
2022-12-16T22:05:04.649Z,0
2022-12-16T22:08:29.896Z,0
2022-12-16T22:11:55.170Z,0
2022-12-16T22:15:20.461Z,0
2022-12-16T22:18:45.724Z,0
2022-12-16T22:22:10.977Z,0
2022-12-16T22:25:36.249Z,0
2022-12-16T22:29:01.535Z,0
2022-12-16T22:32:26.758Z,0
2022-12-16T22:35:52.399Z,0
2022-12-16T22:39:17.339Z,0
2022-12-16T22:42:42.586Z,0
2022-12-16T22:46:07.944Z,0
2022-12-16T22:49:33.136Z,0
2022-12-16T22:52:58.394Z,0
2022-12-16T22:56:23.653Z,0
2022-12-16T22:59:48.909Z,0
2022-12-16T23:03:14.309Z,0
2022-12-16T23:06:39.607Z,0
2022-12-16T23:10:04.701Z,0
2022-12-16T23:13:29.964Z,0
2022-12-16T23:16:55.219Z,0
2022-12-16T23:20:20.545Z,0
2022-12-16T23:23:45.793Z,0
2022-12-16T23:27:11.050Z,0
2022-12-16T23:30:36.317Z,0
2022-12-16T23:34:01.573Z,0
2022-12-16T23:37:26.862Z,0
2022-12-16T23:40:52.083Z,0
2022-12-16T23:44:17.376Z,0
2022-12-16T23:47:42.630Z,0
2022-12-16T23:51:07.926Z,0
2022-12-16T23:54:33.219Z,0
2022-12-16T23:57:58.424Z,0
